Terminal Aerodrome Forecast
Issued by NWS

Current Version | Previous Version | Text Only | Print | Product List | Glossary On
Versions: 1 2 3 4 5 6 7 8 9 10 11 12 13 14 15 16 17
000
FTUS42 KTBW 062335
TAFRSW
TAF
KRSW 062335Z 0700/0724 31008KT P6SM VCSH SCT050 SCT250
     FM070200 VRB03KT P6SM SCT250
     FM071300 VRB05KT P6SM FEW250
     FM071700 28011KT P6SM FEW050 FEW250=

USA.gov is the U.S. government's official web portal to all federal, state and local government web resources and services.